Time;durP1;ratioP1;P1;durP2;ratioP2;P2;SDS_P1;SDS_P2;PMS_P1;PMS_P2;Temp;Humidity;BMP_temperature;BMP_pressure;BME280_temperature;BME280_humidity;BME280_pressure;Samples;Min_cycle;Max_cycle;Signal;HPM_P1;HPM_P2
2023/07/04 00:01:11;;;;;;;3.97;2.78;;;;;;;19.46;64.44;100313.47;4128846;28;20134;-64
2023/07/04 00:03:14;;;;;;;6.78;2.30;;;;;;;19.39;64.30;100325.13;4127934;28;20144;-64
2023/07/04 00:05:18;;;;;;;6.97;3.15;;;;;;;19.32;64.38;100326.16;4127072;28;20040;-64
2023/07/04 00:07:21;;;;;;;4.75;2.40;;;;;;;19.22;64.94;100332.56;4125552;28;20084;-64
2023/07/04 00:09:24;;;;;;;3.85;2.25;;;;;;;19.20;64.88;100329.94;4127902;28;20038;-64
2023/07/04 00:11:28;;;;;;;3.63;2.42;;;;;;;19.17;64.99;100330.91;4127504;28;20050;-64
2023/07/04 00:13:32;;;;;;;;;;;;;;;19.18;65.00;100331.75;4128907;28;20144;-63
2023/07/04 00:15:35;;;;;;;5.07;2.30;;;;;;;19.09;65.21;100327.56;4125405;28;19928;-64
2023/07/04 00:17:39;;;;;;;4.40;2.80;;;;;;;19.12;64.94;100335.38;4124816;28;20049;-63
2023/07/04 00:19:42;;;;;;;4.57;1.85;;;;;;;19.11;64.92;100338.06;4128758;28;21278;-64
2023/07/04 00:21:45;;;;;;;4.45;2.20;;;;;;;19.08;65.28;100331.09;4130368;28;20046;-64
2023/07/04 00:23:52;;;;;;;3.58;2.28;;;;;;;19.14;64.93;100324.81;4128309;28;20505;-64
2023/07/04 00:25:57;;;;;;;6.65;2.72;;;;;;;19.15;65.16;100331.81;4112581;28;20039;-63
2023/07/04 00:28:05;;;;;;;4.73;2.40;;;;;;;19.07;65.31;100332.00;4130052;28;20125;-63
2023/07/04 00:30:10;;;;;;;3.90;2.35;;;;;;;19.09;65.11;100327.56;4128957;28;20304;-63
2023/07/04 00:32:14;;;;;;;3.70;2.50;;;;;;;19.10;65.01;100331.94;4130163;28;20109;-64
2023/07/04 00:34:20;;;;;;;;;;;;;;;19.00;65.17;100336.53;4112728;28;20433;-64
2023/07/04 00:36:23;;;;;;;3.83;2.40;;;;;;;19.05;65.30;100344.34;4097536;29;20290;-64
2023/07/04 00:38:27;;;;;;;;;;;;;;;19.05;65.54;100335.56;4106808;28;21278;-63
2023/07/04 00:40:30;;;;;;;5.13;2.80;;;;;;;19.00;65.46;100341.81;4113616;28;19957;-64
2023/07/04 00:42:35;;;;;;;6.90;3.25;;;;;;;19.02;65.35;100340.00;4130330;28;20062;-64
2023/07/04 00:44:44;;;;;;;3.53;2.33;;;;;;;19.06;65.19;100343.44;4122657;28;20049;-64
2023/07/04 00:46:54;;;;;;;4.38;2.40;;;;;;;18.88;66.01;100347.38;4127925;28;20038;-63
2023/07/04 00:49:00;;;;;;;3.85;2.35;;;;;;;18.86;66.14;100349.16;4103128;28;20500;-63
2023/07/04 00:51:04;;;;;;;5.03;2.92;;;;;;;18.83;65.94;100351.81;4128890;28;20046;-63
2023/07/04 00:53:11;;;;;;;6.25;2.85;;;;;;;18.92;65.99;100345.50;4114370;28;20041;-63
2023/07/04 00:55:14;;;;;;;3.85;2.47;;;;;;;18.80;66.21;100342.22;4113109;28;20172;-64
2023/07/04 00:57:20;;;;;;;;;;;;;;;18.78;66.58;100346.66;4101265;28;20041;-64
2023/07/04 00:59:23;;;;;;;4.95;3.10;;;;;;;18.77;66.72;100351.97;4130901;28;19928;-63
2023/07/04 01:01:27;;;;;;;4.43;2.60;;;;;;;18.73;66.38;100351.13;4112383;28;20047;-63
2023/07/04 01:03:29;;;;;;;3.60;2.10;;;;;;;18.76;66.32;100342.31;4117642;28;20620;-64
2023/07/04 01:05:40;;;;;;;5.68;2.50;;;;;;;18.83;66.17;100341.28;4128185;28;20038;-64
2023/07/04 01:07:51;;;;;;;6.82;2.90;;;;;;;18.72;66.57;100348.53;4113955;28;20038;-63
2023/07/04 01:09:59;;;;;;;7.32;3.05;;;;;;;18.71;66.68;100341.56;4101265;28;20126;-64
2023/07/04 01:12:04;;;;;;;5.32;3.00;;;;;;;18.67;66.93;100340.75;4127365;28;20065;-63
2023/07/04 01:14:18;;;;;;;6.10;2.60;;;;;;;18.56;66.75;100348.00;4128038;28;20556;-63
2023/07/04 01:16:22;;;;;;;4.80;2.65;;;;;;;18.65;66.89;100348.69;4158145;23;20065;-65
2023/07/04 01:18:25;;;;;;;4.70;2.63;;;;;;;18.53;67.01;100359.47;4161633;28;20045;-65
2023/07/04 01:20:28;;;;;;;5.00;2.72;;;;;;;18.55;67.37;100352.41;4158101;28;20088;-65
2023/07/04 01:22:37;;;;;;;3.67;2.42;;;;;;;18.51;67.12;100353.34;4159556;28;20132;-65
2023/07/04 01:24:54;;;;;;;4.57;2.17;;;;;;;18.53;66.75;100359.47;4158634;28;20116;-65
2023/07/04 01:26:59;;;;;;;4.95;2.60;;;;;;;18.57;66.88;100355.84;4140242;28;20048;-65
2023/07/04 01:29:05;;;;;;;4.70;2.70;;;;;;;18.52;67.16;100359.50;4143690;28;20125;-66
2023/07/04 01:31:08;;;;;;;3.22;2.40;;;;;;;18.49;66.90;100353.38;4156871;28;20474;-65
2023/07/04 01:33:13;;;;;;;4.28;2.58;;;;;;;18.55;66.71;100357.66;4145853;28;20042;-65
2023/07/04 01:35:18;;;;;;;3.83;2.08;;;;;;;18.47;66.78;100360.47;4141828;28;20121;-65
2023/07/04 01:37:20;;;;;;;4.43;2.60;;;;;;;18.48;66.86;100367.44;4139589;28;20038;-65
2023/07/04 01:39:25;;;;;;;3.83;2.35;;;;;;;18.48;67.00;100356.06;4139375;28;20034;-65
2023/07/04 01:41:29;;;;;;;5.22;3.17;;;;;;;18.53;66.92;100364.75;4141717;28;20073;-65
2023/07/04 01:43:33;;;;;;;6.72;2.90;;;;;;;18.39;66.95;100367.63;4138982;28;20103;-65
2023/07/04 01:45:36;;;;;;;3.70;2.42;;;;;;;18.35;66.94;100363.31;4142558;28;20052;-65
2023/07/04 01:47:39;;;;;;;9.18;3.22;;;;;;;18.39;67.01;100370.25;4144032;28;20038;-65
2023/07/04 01:49:42;;;;;;;5.73;2.57;;;;;;;18.36;67.19;100375.59;4126042;28;20097;-65
2023/07/04 01:51:46;;;;;;;5.00;2.38;;;;;;;18.44;67.09;100371.06;4132647;28;20065;-65
2023/07/04 01:53:49;;;;;;;5.57;2.47;;;;;;;18.40;67.22;100374.66;4143591;28;20519;-65
2023/07/04 01:55:52;;;;;;;6.68;2.53;;;;;;;18.41;66.63;100373.75;4130869;28;20889;-65
2023/07/04 01:57:55;;;;;;;4.35;2.47;;;;;;;18.38;66.94;100379.06;4120078;28;20398;-65
2023/07/04 01:59:59;;;;;;;4.80;2.20;;;;;;;18.36;67.03;100380.84;4138858;28;20080;-65
2023/07/04 02:02:02;;;;;;;4.28;2.58;;;;;;;18.33;67.08;100378.28;4143519;28;20064;-66
2023/07/04 02:04:05;;;;;;;3.95;2.20;;;;;;;18.33;66.92;100380.91;4144393;28;20137;-66
2023/07/04 02:06:08;;;;;;;5.55;2.30;;;;;;;18.35;66.71;100378.25;4140918;28;20042;-66
2023/07/04 02:08:12;;;;;;;4.90;2.38;;;;;;;18.33;67.01;100388.81;4145272;28;20034;-66
2023/07/04 02:10:15;;;;;;;4.30;2.40;;;;;;;18.35;67.01;100394.91;4145329;28;20042;-66
2023/07/04 02:12:18;;;;;;;4.63;2.55;;;;;;;18.31;66.79;100387.97;4142139;28;20046;-66
2023/07/04 02:14:21;;;;;;;3.72;2.10;;;;;;;18.33;66.78;100380.06;4144252;28;20526;-66
2023/07/04 02:16:26;;;;;;;4.70;2.45;;;;;;;18.34;67.03;100382.66;4144644;28;20077;-67
2023/07/04 02:18:29;;;;;;;4.47;2.55;;;;;;;18.23;67.35;100384.63;4142657;28;20056;-68
2023/07/04 02:20:32;;;;;;;5.13;2.25;;;;;;;18.27;66.95;100379.25;4145144;28;20042;-67
2023/07/04 02:22:35;;;;;;;3.95;2.70;;;;;;;18.20;67.38;100387.31;4145584;28;20042;-66
2023/07/04 02:24:37;;;;;;;4.45;2.70;;;;;;;18.28;67.32;100385.38;4143854;28;20133;-66
2023/07/04 02:26:40;;;;;;;5.97;2.65;;;;;;;18.23;67.08;100392.50;4146146;28;20050;-66
2023/07/04 02:28:43;;;;;;;5.78;2.90;;;;;;;18.33;66.73;100390.59;4142028;28;20040;-66
2023/07/04 02:30:53;;;;;;;6.90;2.70;;;;;;;18.27;66.95;100394.19;4139204;28;20045;-66
2023/07/04 02:32:58;;;;;;;4.85;2.20;;;;;;;18.29;66.82;100392.41;4144976;28;20076;-67
2023/07/04 02:35:02;;;;;;;6.45;2.65;;;;;;;18.33;66.75;100399.34;4124675;28;20042;-66
2023/07/04 02:37:07;;;;;;;3.13;2.47;;;;;;;18.23;66.92;100395.16;4140583;28;20049;-66
2023/07/04 02:39:10;;;;;;;3.05;2.13;;;;;;;18.17;67.49;100393.50;4141497;28;20120;-66
2023/07/04 02:41:13;;;;;;;4.30;2.60;;;;;;;18.13;67.86;100397.06;4144779;28;20034;-66
2023/07/04 02:43:17;;;;;;;6.32;3.17;;;;;;;18.13;67.29;100397.94;4127562;28;20052;-66
2023/07/04 02:45:20;;;;;;;3.45;2.30;;;;;;;18.08;67.74;100391.91;4143355;28;20112;-66
2023/07/04 02:47:26;;;;;;;6.18;2.70;;;;;;;18.19;67.42;100390.84;4140045;28;20058;-66
2023/07/04 02:49:35;;;;;;;5.22;2.90;;;;;;;18.14;67.37;100389.16;4143591;28;20044;-66
2023/07/04 02:51:38;;;;;;;6.18;2.70;;;;;;;18.20;67.18;100389.94;4139813;28;20499;-66
2023/07/04 02:53:41;;;;;;;3.83;2.25;;;;;;;18.17;67.13;100392.63;4127801;28;20034;-66
2023/07/04 02:55:44;;;;;;;8.25;2.88;;;;;;;18.18;67.41;100394.34;4125041;28;20482;-66
2023/07/04 02:57:47;;;;;;;4.90;2.78;;;;;;;18.13;67.51;100397.06;4132190;28;20047;-67
2023/07/04 02:59:50;;;;;;;6.70;2.50;;;;;;;18.19;67.49;100390.84;4159609;28;20076;-67
2023/07/04 03:01:53;;;;;;;3.65;2.67;;;;;;;18.13;67.47;100397.06;4138963;28;20562;-66
2023/07/04 03:03:57;;;;;;;5.30;2.22;;;;;;;18.11;67.46;100394.47;4137063;28;20516;-67
2023/07/04 03:06:02;;;;;;;5.20;2.78;;;;;;;18.12;67.45;100393.59;4140581;28;20076;-67
2023/07/04 03:08:06;;;;;;;4.63;2.17;;;;;;;18.10;67.53;100403.25;4140997;28;20566;-67
2023/07/04 03:10:09;;;;;;;4.60;2.53;;;;;;;18.13;67.39;100408.44;4141789;28;20117;-67
2023/07/04 03:12:13;;;;;;;4.22;2.53;;;;;;;18.09;67.43;100401.53;4126994;28;20073;-66
2023/07/04 03:14:16;;;;;;;4.45;2.13;;;;;;;18.10;67.33;100403.25;4140804;28;20065;-67
2023/07/04 03:16:19;;;;;;;8.60;2.25;;;;;;;18.07;67.32;100405.06;4129145;28;20488;-67
2023/07/04 03:18:23;;;;;;;5.25;2.45;;;;;;;18.03;67.42;100417.41;4137729;28;20117;-67
2023/07/04 03:20:27;;;;;;;3.78;2.50;;;;;;;18.05;67.79;100420.91;4140242;28;20523;-67
2023/07/04 03:22:31;;;;;;;4.63;2.05;;;;;;;18.05;67.44;100418.25;4155549;28;20454;-66
2023/07/04 03:24:34;;;;;;;4.47;2.40;;;;;;;18.00;67.53;100420.09;4138446;28;20042;-67
2023/07/04 03:26:40;;;;;;;3.67;2.20;;;;;;;17.99;67.73;100425.38;4141357;28;20046;-67
2023/07/04 03:28:43;;;;;;;3.60;2.42;;;;;;;18.00;67.53;100427.13;4137049;28;20072;-66
2023/07/04 03:30:47;;;;;;;4.95;2.58;;;;;;;18.01;67.60;100428.88;4116725;28;20497;-67
2023/07/04 03:32:50;;;;;;;3.17;2.22;;;;;;;17.97;67.87;100428.03;4142477;28;20061;-66
2023/07/04 03:34:55;;;;;;;3.63;2.13;;;;;;;17.94;68.03;100433.34;4144029;28;20092;-66
2023/07/04 03:36:58;;;;;;;5.50;2.60;;;;;;;17.95;68.05;100429.84;4142661;28;20169;-66
2023/07/04 03:39:03;;;;;;;4.25;2.30;;;;;;;17.99;67.68;100438.53;4144674;28;20502;-66
2023/07/04 03:41:06;;;;;;;5.00;2.50;;;;;;;17.96;67.84;100436.84;4120764;28;20174;-66
2023/07/04 03:43:09;;;;;;;5.78;2.63;;;;;;;17.95;67.62;100435.09;4143773;28;20393;-66
2023/07/04 03:45:12;;;;;;;4.93;2.58;;;;;;;17.95;68.06;100445.63;4142863;28;20038;-67
2023/07/04 03:47:15;;;;;;;4.60;2.55;;;;;;;17.93;67.93;100440.38;4134482;28;20053;-67
2023/07/04 03:49:18;;;;;;;5.10;2.33;;;;;;;17.94;67.99;100446.50;4126414;28;20230;-67
2023/07/04 03:51:21;;;;;;;7.88;3.08;;;;;;;17.96;67.94;100442.09;4139809;28;20121;-66
2023/07/04 03:53:24;;;;;;;4.43;2.42;;;;;;;17.95;68.09;100435.09;4135926;28;20034;-67
2023/07/04 03:55:28;;;;;;;5.28;2.53;;;;;;;17.95;67.73;100445.63;4139696;28;20088;-67
2023/07/04 03:57:31;;;;;;;5.10;2.60;;;;;;;17.95;67.72;100449.09;4139548;28;20038;-67
2023/07/04 03:59:34;;;;;;;5.40;2.65;;;;;;;17.97;67.77;100451.72;4142152;28;20996;-67
2023/07/04 04:01:37;;;;;;;4.30;2.30;;;;;;;17.98;67.87;100455.22;4143752;28;20038;-67
2023/07/04 04:03:40;;;;;;;5.40;2.20;;;;;;;17.96;67.63;100450.84;4141146;28;20046;-67
2023/07/04 04:05:45;;;;;;;4.18;2.42;;;;;;;18.02;67.32;100454.25;4143428;28;20136;-60
2023/07/04 04:07:48;;;;;;;6.28;2.00;;;;;;;18.35;66.47;100451.94;4130697;28;20038;-60
2023/07/04 04:09:51;;;;;;;2.53;1.67;;;;;;;18.68;65.53;100453.09;4138686;28;20046;-60
2023/07/04 04:11:55;;;;;;;3.30;2.05;;;;;;;18.98;64.48;100451.63;4140921;28;20042;-60
2023/07/04 04:13:58;;;;;;;5.85;2.05;;;;;;;19.17;63.77;100449.47;4135771;28;20034;-60
2023/07/04 04:16:01;;;;;;;4.93;2.70;;;;;;;19.28;63.39;100448.38;4141027;28;20061;-60
2023/07/04 04:18:04;;;;;;;9.35;2.95;;;;;;;19.33;63.23;100446.50;4140403;28;20088;-60
2023/07/04 04:20:10;;;;;;;7.43;2.67;;;;;;;19.36;63.47;100441.16;4137981;28;20073;-59
2023/07/04 04:22:15;;;;;;;4.90;2.20;;;;;;;19.40;62.82;100442.81;4143418;28;20396;-60
2023/07/04 04:24:18;;;;;;;7.15;2.75;;;;;;;19.44;62.69;100452.41;4137705;28;20047;-60
2023/07/04 04:26:22;;;;;;;3.33;2.38;;;;;;;19.41;62.36;100449.84;4141228;28;20579;-67
2023/07/04 04:28:26;;;;;;;6.20;3.03;;;;;;;19.24;62.92;100455.47;4137546;28;20034;-67
2023/07/04 04:30:50;;;;;;;6.07;2.92;;;;;;;19.01;63.21;100459.47;4143275;28;20042;-67
2023/07/04 04:32:53;;;;;;;4.75;2.30;;;;;;;18.88;63.47;100470.28;4133239;28;20042;-67
2023/07/04 04:34:56;;;;;;;5.95;3.15;;;;;;;18.77;63.98;100457.31;4142800;28;20053;-67
2023/07/04 04:36:59;;;;;;;4.50;2.03;;;;;;;18.68;64.75;100463.63;4140533;28;20509;-67
2023/07/04 04:39:03;;;;;;;4.53;2.58;;;;;;;18.64;64.67;100457.53;4143962;28;20551;-67
2023/07/04 04:41:08;;;;;;;5.60;2.67;;;;;;;18.60;65.27;100466.41;4141973;28;20523;-67
2023/07/04 04:43:11;;;;;;;5.40;2.63;;;;;;;18.58;65.03;100462.06;4140127;28;20107;-67
2023/07/04 04:45:15;;;;;;;4.07;2.63;;;;;;;18.59;65.42;100466.44;4134482;28;20045;-68
2023/07/04 04:47:22;;;;;;;5.22;2.63;;;;;;;18.58;64.75;100477.84;4142921;28;20049;-67
2023/07/04 04:49:24;;;;;;;5.95;2.42;;;;;;;18.57;64.95;100471.69;4140836;28;20046;-67
2023/07/04 04:51:28;;;;;;;6.25;3.17;;;;;;;18.58;64.76;100473.44;4138685;28;20415;-67
2023/07/04 04:53:31;;;;;;;6.72;3.05;;;;;;;18.60;64.43;100476.94;4140432;28;20034;-67
2023/07/04 04:55:35;;;;;;;6.60;2.88;;;;;;;18.63;64.41;100471.63;4139106;28;20124;-67
2023/07/04 04:57:38;;;;;;;6.95;2.90;;;;;;;18.66;64.68;100473.28;4144086;28;20050;-67
2023/07/04 04:59:41;;;;;;;6.35;2.50;;;;;;;18.70;64.21;100474.97;4141324;28;20053;-67
2023/07/04 05:01:46;;;;;;;7.22;2.88;;;;;;;18.75;64.30;100477.50;4139062;28;20507;-67
2023/07/04 05:03:50;;;;;;;;;;;;;;;18.69;64.30;100481.16;4140557;28;20149;-67
2023/07/04 05:05:52;;;;;;;9.02;3.17;;;;;;;18.72;64.16;100475.84;4142065;28;19956;-67
2023/07/04 05:07:55;;;;;;;6.90;2.95;;;;;;;18.80;63.88;100475.69;4142960;28;20296;-67
2023/07/04 05:09:59;;;;;;;8.70;3.00;;;;;;;18.84;64.14;100480.84;4145262;28;20061;-67
2023/07/04 05:12:02;;;;;;;7.72;3.13;;;;;;;18.87;64.26;100474.69;4145628;28;20047;-67
2023/07/04 05:14:07;;;;;;;6.05;2.70;;;;;;;18.92;64.10;100471.97;4142334;28;20507;-67
2023/07/04 05:16:13;;;;;;;9.95;2.92;;;;;;;18.96;63.71;100471.00;4143106;28;20040;-67
2023/07/04 05:18:17;;;;;;;5.88;3.13;;;;;;;19.00;63.45;100470.06;4144707;28;20438;-67
2023/07/04 05:20:23;;;;;;;10.02;3.05;;;;;;;19.05;62.85;100468.16;4141515;28;20129;-67
2023/07/04 05:22:26;;;;;;;8.02;3.28;;;;;;;19.09;62.80;100472.47;4146121;28;20128;-67
2023/07/04 05:24:31;;;;;;;9.85;3.35;;;;;;;19.17;62.58;100482.84;4140585;28;20042;-67
2023/07/04 05:26:34;;;;;;;9.68;3.65;;;;;;;19.21;62.13;100470.50;4138969;28;20049;-67
2023/07/04 05:28:37;;;;;;;10.43;3.45;;;;;;;19.30;61.99;100478.19;4145124;28;20045;-67
2023/07/04 05:30:39;;;;;;;12.15;4.47;;;;;;;19.32;61.41;100485.19;4144584;28;20120;-67
2023/07/04 05:32:42;;;;;;;9.75;4.40;;;;;;;19.36;61.28;100483.31;4140789;28;20042;-67
2023/07/04 05:34:49;;;;;;;13.40;3.42;;;;;;;19.43;61.19;100489.34;4145812;28;20411;-67
2023/07/04 05:36:51;;;;;;;11.45;3.45;;;;;;;19.48;60.78;100487.50;4142383;28;20452;-67
2023/07/04 05:38:59;;;;;;;10.40;3.65;;;;;;;19.53;60.87;100481.19;4142975;28;20074;-67
2023/07/04 05:41:03;;;;;;;8.43;3.70;;;;;;;19.60;60.84;100483.72;4143318;28;20045;-67
2023/07/04 05:43:06;;;;;;;12.67;4.30;;;;;;;19.64;60.57;100488.88;4142308;28;20037;-67
2023/07/04 05:45:09;;;;;;;10.82;4.70;;;;;;;19.68;60.17;100484.38;4144758;28;20289;-67
2023/07/04 05:47:12;;;;;;;11.75;3.95;;;;;;;19.71;59.89;100479.91;4136001;28;20054;-67
2023/07/04 05:49:15;;;;;;;9.27;4.00;;;;;;;19.79;60.12;100479.75;4143610;28;20038;-67
2023/07/04 05:51:20;;;;;;;11.00;4.55;;;;;;;19.87;59.97;100482.22;4140051;28;20041;-67
2023/07/04 05:53:25;;;;;;;12.90;5.10;;;;;;;19.91;59.01;100480.38;4135919;28;20412;-67
2023/07/04 05:55:28;;;;;;;8.18;3.85;;;;;;;19.91;59.44;100486.50;4141726;28;20038;-67
2023/07/04 05:57:34;;;;;;;9.95;3.92;;;;;;;19.97;59.19;100485.50;4144591;28;20038;-67
2023/07/04 05:59:37;;;;;;;10.13;4.15;;;;;;;20.03;58.38;100495.91;4141327;28;20072;-67
2023/07/04 06:01:43;;;;;;;14.38;5.15;;;;;;;20.09;57.77;100489.59;4137696;28;20038;-67
2023/07/04 06:03:46;;;;;;;9.98;4.60;;;;;;;20.13;57.77;100489.47;4137779;28;20041;-67
2023/07/04 06:05:49;;;;;;;10.02;3.85;;;;;;;20.21;57.79;100484.03;4143616;28;20093;-67
2023/07/04 06:07:53;;;;;;;9.82;4.00;;;;;;;20.25;57.23;100490.94;4143533;28;20034;-67
2023/07/04 06:09:56;;;;;;;8.32;4.03;;;;;;;20.35;55.70;100486.31;4144638;28;20088;-67
2023/07/04 06:11:59;;;;;;;13.38;5.03;;;;;;;20.38;55.29;100481.81;4144105;28;20059;-67
2023/07/04 06:14:02;;;;;;;9.98;4.18;;;;;;;20.40;55.20;100490.56;4138473;28;20045;-66
2023/07/04 06:16:05;;;;;;;8.60;3.92;;;;;;;20.43;55.26;100489.63;4144559;28;20030;-67
2023/07/04 06:18:08;;;;;;;7.07;3.45;;;;;;;20.49;55.48;100489.47;4138577;28;20044;-67
2023/07/04 06:20:12;;;;;;;8.23;3.50;;;;;;;20.52;55.98;100492.00;4142314;28;20065;-67
2023/07/04 06:22:15;;;;;;;12.20;4.35;;;;;;;20.54;55.28;100492.81;4145258;28;20050;-67
2023/07/04 06:24:20;;;;;;;12.93;4.10;;;;;;;20.62;53.76;100489.13;4142961;28;20125;-66
2023/07/04 06:26:27;;;;;;;8.07;3.40;;;;;;;20.69;53.24;100490.72;4140408;28;20041;-67
2023/07/04 06:28:30;;;;;;;8.18;3.55;;;;;;;20.75;52.76;100486.16;4144216;28;20045;-67
2023/07/04 06:30:35;;;;;;;9.80;3.88;;;;;;;20.81;52.86;100498.31;4142510;28;20034;-67
2023/07/04 06:32:38;;;;;;;8.50;3.63;;;;;;;20.86;52.63;100493.75;4137483;28;20045;-67
2023/07/04 06:34:40;;;;;;;9.80;3.42;;;;;;;20.90;52.27;100500.69;4144151;28;20381;-67
2023/07/04 06:36:48;;;;;;;7.50;3.60;;;;;;;20.96;52.28;100504.09;4143271;28;20035;-67
2023/07/04 06:38:51;;;;;;;9.25;3.30;;;;;;;20.99;51.86;100496.94;4138559;28;20492;-67
2023/07/04 06:41:01;;;;;;;7.80;3.08;;;;;;;21.06;51.95;100501.13;4141226;28;20080;-67
2023/07/04 06:43:05;;;;;;;7.00;3.22;;;;;;;21.13;51.41;100501.84;4142327;28;20034;-67
2023/07/04 06:45:08;;;;;;;7.88;3.85;;;;;;;21.17;50.87;100503.44;4140402;28;20073;-67
2023/07/04 06:47:11;;;;;;;10.23;3.50;;;;;;;21.19;50.65;100501.66;4142318;28;20514;-67
2023/07/04 06:49:14;;;;;;;9.55;3.70;;;;;;;21.23;51.02;100508.59;4144690;28;20152;-67
2023/07/04 06:51:19;;;;;;;9.65;4.63;;;;;;;21.37;50.53;100507.31;4140488;28;20040;-66
2023/07/04 06:53:22;;;;;;;11.90;3.88;;;;;;;21.40;49.90;100517.78;4141069;28;20069;-67
2023/07/04 06:55:25;;;;;;;10.45;3.78;;;;;;;21.36;49.60;100508.22;4144082;28;20038;-66
2023/07/04 06:57:29;;;;;;;8.23;3.75;;;;;;;21.38;48.84;100509.06;4142667;28;20052;-67
2023/07/04 06:59:32;;;;;;;9.35;3.50;;;;;;;21.41;49.23;100517.75;4139850;28;20042;-67
2023/07/04 07:01:38;;;;;;;10.93;3.95;;;;;;;21.46;48.73;100512.31;4143016;28;20388;-67
2023/07/04 07:03:42;;;;;;;9.48;4.18;;;;;;;21.52;48.79;100520.09;4125801;28;20046;-67
2023/07/04 07:05:45;;;;;;;9.98;3.58;;;;;;;21.60;48.72;100522.53;4139445;28;20039;-67
2023/07/04 07:07:48;;;;;;;10.23;3.70;;;;;;;21.69;48.27;100529.31;4139811;28;20050;-67
2023/07/04 07:09:51;;;;;;;11.55;4.15;;;;;;;21.71;47.59;100523.06;4138426;28;20037;-67
2023/07/04 07:11:54;;;;;;;9.50;3.75;;;;;;;21.76;46.81;100533.50;4139849;28;20049;-67
2023/07/04 07:13:58;;;;;;;6.82;3.15;;;;;;;21.81;47.07;100520.97;4140559;28;20067;-67
2023/07/04 07:16:10;;;;;;;9.95;3.47;;;;;;;21.86;46.56;100527.00;4165692;22;20123;-63
2023/07/04 07:18:12;;;;;;;12.68;3.63;;;;;;;21.83;46.26;100534.16;4159911;28;20219;-64
2023/07/04 07:20:16;;;;;;;10.23;3.38;;;;;;;21.91;46.37;100527.72;4159484;28;20073;-64
2023/07/04 07:22:19;;;;;;;8.50;3.42;;;;;;;22.01;46.65;100530.06;4162229;28;20128;-64
2023/07/04 07:24:22;;;;;;;11.63;3.90;;;;;;;22.03;46.00;100531.75;4148609;28;20253;-64
2023/07/04 07:26:26;;;;;;;10.98;3.22;;;;;;;22.07;45.24;100522.78;4146693;28;20046;-64
2023/07/04 07:28:32;;;;;;;14.73;3.13;;;;;;;22.14;45.59;100534.06;4143541;28;20042;-63
2023/07/04 07:30:39;;;;;;;7.75;3.80;;;;;;;22.21;45.48;100532.06;4141472;28;20042;-64
2023/07/04 07:32:42;;;;;;;9.98;4.55;;;;;;;22.24;44.62;100535.47;4141165;28;20382;-64
2023/07/04 07:34:45;;;;;;;13.02;4.15;;;;;;;22.28;45.46;100536.22;4144538;28;20037;-64
2023/07/04 07:36:48;;;;;;;9.77;3.85;;;;;;;22.34;45.26;100533.44;4143623;28;20042;-64
2023/07/04 07:38:52;;;;;;;9.77;3.53;;;;;;;22.45;44.85;100528.63;4139713;28;20065;-64
2023/07/04 07:40:55;;;;;;;11.50;3.90;;;;;;;22.49;44.68;100535.56;4141201;28;20068;-64
2023/07/04 07:42:58;;;;;;;17.15;4.20;;;;;;;22.59;44.48;100533.47;4145675;28;20041;-64
2023/07/04 07:45:01;;;;;;;9.43;3.75;;;;;;;22.62;44.21;100535.16;4140355;28;20062;-64
2023/07/04 07:47:06;;;;;;;8.73;3.40;;;;;;;22.71;44.30;100532.16;4143049;28;20488;-64
2023/07/04 07:49:09;;;;;;;8.77;3.40;;;;;;;22.79;44.21;100531.88;4143046;28;20377;-64
2023/07/04 07:51:12;;;;;;;16.30;4.72;;;;;;;22.78;43.55;100530.13;4142388;28;20125;-64
2023/07/04 07:53:16;;;;;;;34.47;6.45;;;;;;;22.82;44.05;100526.47;4138527;28;20034;-64
2023/07/04 07:55:19;;;;;;;12.07;4.50;;;;;;;23.00;43.82;100523.16;4143934;28;20487;-64
2023/07/04 07:57:22;;;;;;;9.70;3.88;;;;;;;23.05;43.63;100528.28;4142997;28;20054;-64
2023/07/04 07:59:24;;;;;;;7.97;3.53;;;;;;;23.16;42.99;100533.25;4140092;28;20045;-64
2023/07/04 08:01:31;;;;;;;11.23;4.50;;;;;;;23.25;42.30;100530.25;4143940;28;20411;-65
2023/07/04 08:03:35;;;;;;;8.02;3.65;;;;;;;23.25;41.97;100511.69;4140758;28;20049;-64
2023/07/04 08:05:38;;;;;;;6.78;3.58;;;;;;;23.32;41.67;100513.19;4139047;28;20038;-64
2023/07/04 08:07:41;;;;;;;8.77;3.42;;;;;;;23.37;41.72;100507.69;4144089;28;20053;-64
2023/07/04 08:09:44;;;;;;;10.55;4.35;;;;;;;23.42;41.45;100515.47;4143884;28;20121;-65
2023/07/04 08:11:48;;;;;;;8.27;3.92;;;;;;;23.48;40.80;100520.53;4139243;28;20034;-64
2023/07/04 08:13:56;;;;;;;7.45;3.92;;;;;;;23.61;40.46;100510.31;4138081;28;20038;-64
2023/07/04 08:15:59;;;;;;;8.35;3.58;;;;;;;23.66;40.70;100511.00;4140602;28;20049;-64
2023/07/04 08:18:05;;;;;;;12.45;3.75;;;;;;;23.67;41.00;100504.75;4141336;28;20050;-64
2023/07/04 08:20:11;;;;;;;17.73;4.60;;;;;;;23.70;40.84;100518.78;4139995;28;20566;-64
2023/07/04 08:22:14;;;;;;;5.70;3.05;;;;;;;23.66;40.45;100514.50;4143257;28;20538;-64
2023/07/04 08:24:17;;;;;;;8.40;4.10;;;;;;;23.69;39.70;100509.09;4142042;28;20415;-65
2023/07/04 08:26:23;;;;;;;11.70;4.35;;;;;;;23.74;38.85;100508.03;4139627;28;20070;-65
2023/07/04 08:28:26;;;;;;;7.88;4.22;;;;;;;23.79;39.20;100508.72;4142752;28;20058;-64
2023/07/04 08:30:29;;;;;;;7.30;3.67;;;;;;;23.81;38.57;100512.19;4143714;28;20073;-64
2023/07/04 08:32:33;;;;;;;6.18;3.22;;;;;;;23.86;38.75;100510.25;4118565;28;20528;-65
2023/07/04 08:34:36;;;;;;;7.40;3.38;;;;;;;23.90;38.11;100509.19;4142407;28;20070;-65
2023/07/04 08:36:41;;;;;;;8.65;4.25;;;;;;;23.88;37.74;100503.94;4141297;28;20134;-64
2023/07/04 08:38:47;;;;;;;6.95;3.75;;;;;;;23.87;37.51;100506.66;4137484;28;20057;-64
2023/07/04 08:40:50;;;;;;;7.13;3.28;;;;;;;23.92;37.95;100511.78;4142386;28;20034;-65
2023/07/04 08:42:54;;;;;;;7.40;3.72;;;;;;;24.00;37.79;100504.38;4145941;28;20038;-64
2023/07/04 08:44:57;;;;;;;9.73;3.90;;;;;;;23.92;37.01;100503.81;4144306;28;20058;-64
2023/07/04 08:47:00;;;;;;;8.35;3.85;;;;;;;24.02;37.39;100502.50;4142614;28;20118;-65
2023/07/04 08:49:04;;;;;;;9.55;3.38;;;;;;;24.06;36.96;100504.09;4146102;28;20388;-65
2023/07/04 08:51:07;;;;;;;9.95;3.88;;;;;;;24.13;37.19;100502.06;4146062;28;20099;-65
2023/07/04 08:53:17;;;;;;;7.63;3.53;;;;;;;24.18;37.24;100500.97;4127517;28;20038;-65
2023/07/04 08:55:21;;;;;;;12.02;4.18;;;;;;;24.19;37.50;100510.63;4146797;28;20041;-65
2023/07/04 08:57:30;;;;;;;;;;;;;;;24.08;36.98;100506.69;4144609;28;20472;-65
2023/07/04 08:59:42;;;;;;;10.68;3.63;;;;;;;24.13;37.31;100502.06;4140326;28;19953;-65
2023/07/04 09:02:01;;;;;;;7.38;3.70;;;;;;;24.28;37.13;100509.38;4146881;28;20038;-65
2023/07/04 09:04:09;;;;;;;7.32;4.22;;;;;;;24.38;36.38;100505.41;4142765;28;20052;-65
2023/07/04 09:06:17;;;;;;;10.90;4.10;;;;;;;24.43;36.68;100507.00;4162436;28;20041;-65
2023/07/04 09:08:42;;;;;;;7.47;3.78;;;;;;;24.38;35.88;100508.06;4144009;28;20065;-65
2023/07/04 09:10:47;;;;;;;7.88;3.92;;;;;;;24.36;35.75;100501.09;4141672;28;20399;-65
2023/07/04 09:12:51;;;;;;;10.02;3.80;;;;;;;24.45;34.95;100506.00;4143860;28;20165;-65
2023/07/04 09:15:01;;;;;;;9.47;4.07;;;;;;;24.50;34.79;100505.81;4145271;28;20419;-65
2023/07/04 09:17:17;;;;;;;7.40;3.47;;;;;;;24.56;35.04;100503.75;4143291;28;20375;-64
2023/07/04 09:19:20;;;;;;;5.55;3.15;;;;;;;24.44;34.80;100504.28;4145316;28;20046;-65
2023/07/04 09:21:25;;;;;;;7.82;3.55;;;;;;;24.53;35.20;100497.69;4146332;28;20041;-65
2023/07/04 09:23:30;;;;;;;5.82;3.75;;;;;;;24.60;35.00;100501.00;4144354;28;20038;-65
2023/07/04 09:25:33;;;;;;;11.00;4.18;;;;;;;24.67;35.00;100491.84;4145814;28;20399;-65
2023/07/04 09:27:36;;;;;;;9.13;3.67;;;;;;;24.76;35.68;100496.72;4146027;28;20459;-65
2023/07/04 09:29:39;;;;;;;7.45;3.90;;;;;;;24.79;35.67;100507.22;4143934;28;20089;-64
2023/07/04 09:31:45;;;;;;;7.05;3.67;;;;;;;24.84;35.46;100505.25;4142902;28;20034;-65
2023/07/04 09:33:49;;;;;;;7.35;3.88;;;;;;;24.89;35.03;100502.38;4143040;28;20052;-65
2023/07/04 09:35:52;;;;;;;6.28;3.92;;;;;;;24.94;34.46;100504.81;4146940;28;20084;-65
2023/07/04 09:37:57;;;;;;;8.32;4.10;;;;;;;24.99;34.15;100502.81;4141255;28;20560;-65